« Back
NWS Peachtree City, Ga » Text Product » CSG Terminal Aerodrome Forecast


Printer-friendly Version
Current Version              Previous Versions:   1  2  3  4  5  6  7  8  9  

Terminal Aerodrome Forecast

973
FTUS42 KFFC 231700
TAFCSG
TAF
KCSG 231739Z 2318/2418 35008KT P6SM SKC
     FM240000 35005KT P6SM SKC
     FM241000 04005KT P6SM SKC
     FM241500 12008KT P6SM SKC=



USA.gov is the U.S. government's official web portal to all federal, state and local government web resources and services.